createdAt,value
2023-05-24T00:01:45.282Z,1.40
2023-05-24T00:04:49.574Z,3.25
2023-05-24T00:07:52.238Z,1.52
2023-05-24T00:10:54.372Z,1.48
2023-05-24T00:13:57.129Z,1.38
2023-05-24T00:16:59.676Z,1.58
2023-05-24T00:20:03.805Z,0.90
2023-05-24T00:23:08.076Z,1.67
2023-05-24T00:26:11.294Z,1.50
2023-05-24T00:29:15.936Z,1.08
2023-05-24T00:32:18.416Z,0.90
2023-05-24T00:35:20.720Z,1.20
2023-05-24T00:38:24.102Z,1.30
2023-05-24T00:41:28.458Z,0.93
2023-05-24T00:44:31.497Z,1.10
2023-05-24T00:47:34.339Z,1.08
2023-05-24T00:50:39.682Z,1.63
2023-05-24T00:53:44.903Z,1.13
2023-05-24T00:56:49.274Z,1.08
2023-05-24T00:59:51.857Z,1.00
2023-05-24T01:02:55.462Z,1.33
2023-05-24T01:06:03.473Z,1.27
2023-05-24T01:09:31.055Z,1.52
2023-05-24T01:13:23.373Z,1.20
2023-05-24T01:16:53.872Z,1.17
2023-05-24T01:20:10.382Z,1.63
2023-05-24T01:24:05.146Z,1.38
2023-05-24T01:27:16.197Z,1.50
2023-05-24T01:30:30.544Z,1.27
2023-05-24T01:51:09.253Z,1.15
2023-05-24T01:54:28.817Z,1.20
2023-05-24T01:57:49.033Z,1.17
2023-05-24T02:01:43.852Z,1.00
2023-05-24T02:09:29.336Z,1.00
2023-05-24T02:13:06.034Z,1.10
2023-05-24T02:16:31.141Z,1.15
2023-05-24T02:19:53.411Z,1.40
2023-05-24T02:23:48.444Z,0.98
2023-05-24T02:27:04.056Z,1.33
2023-05-24T02:30:08.599Z,1.73
2023-05-24T02:33:12.640Z,1.10
2023-05-24T02:36:18.074Z,1.67
2023-05-24T02:39:31.016Z,1.35
2023-05-24T02:42:37.557Z,1.08
2023-05-24T02:45:42.222Z,1.50
2023-05-24T02:52:23.501Z,1.10
2023-05-24T02:55:44.434Z,2.03
2023-05-24T02:59:45.926Z,2.05
2023-05-24T03:03:53.472Z,1.17
2023-05-24T03:30:23.135Z,0.88
2023-05-24T03:33:30.109Z,1.40
2023-05-24T03:36:33.036Z,1.00
2023-05-24T03:39:35.961Z,1.42
2023-05-24T03:43:04.709Z,1.13
2023-05-24T03:46:34.864Z,0.88
2023-05-24T03:49:38.508Z,1.17
2023-05-24T03:52:43.162Z,1.10
2023-05-24T03:55:45.945Z,1.35
2023-05-24T03:58:52.481Z,1.23
2023-05-24T04:01:55.007Z,1.00
2023-05-24T04:04:58.612Z,1.33
2023-05-24T04:08:01.931Z,1.20
2023-05-24T04:11:04.970Z,1.10
2023-05-24T04:14:07.454Z,0.77
2023-05-24T04:17:11.784Z,1.25
2023-05-24T04:20:14.783Z,2.28
2023-05-24T04:23:18.215Z,1.17
2023-05-24T04:26:21.485Z,1.20
2023-05-24T04:29:27.250Z,1.48
2023-05-24T04:32:31.033Z,1.17
2023-05-24T04:35:35.833Z,1.10
2023-05-24T04:38:39.063Z,1.95
2023-05-24T04:41:41.810Z,1.20
2023-05-24T04:44:45.734Z,1.05
2023-05-24T04:51:01.274Z,2.67
2023-05-24T04:54:11.394Z,2.45
2023-05-24T04:57:14.281Z,2.70
2023-05-24T05:00:17.277Z,3.45
2023-05-24T05:03:20.370Z,3.17
2023-05-24T05:06:26.372Z,3.10
2023-05-24T05:09:28.853Z,3.28
2023-05-24T05:12:31.998Z,3.65
2023-05-24T05:15:36.111Z,3.47
2023-05-24T05:18:39.732Z,3.80
2023-05-24T05:21:43.190Z,4.50
2023-05-24T05:24:46.287Z,4.22
2023-05-24T05:27:48.914Z,3.50
2023-05-24T05:30:51.770Z,5.10
2023-05-24T05:33:54.474Z,3.83
2023-05-24T05:36:57.115Z,3.50
2023-05-24T05:39:59.775Z,3.17
2023-05-24T05:43:03.194Z,3.47
2023-05-24T05:46:06.090Z,3.75
2023-05-24T05:49:15.821Z,4.40
2023-05-24T05:52:18.696Z,3.90
2023-05-24T05:55:21.830Z,3.15
2023-05-24T05:58:24.214Z,2.90
2023-05-24T06:01:27.091Z,3.45
2023-05-24T06:04:29.388Z,4.00
2023-05-24T06:07:33.091Z,3.53
2023-05-24T06:10:35.729Z,3.33
2023-05-24T06:13:40.770Z,3.38
2023-05-24T06:16:44.005Z,3.33
2023-05-24T06:19:46.841Z,3.90
2023-05-24T06:22:51.437Z,4.13
2023-05-24T06:25:58.271Z,3.35
2023-05-24T06:29:01.277Z,4.82
2023-05-24T06:32:08.023Z,3.78
2023-05-24T06:35:12.405Z,3.88
2023-05-24T06:38:16.553Z,3.03
2023-05-24T06:41:18.954Z,3.55
2023-05-24T06:44:25.385Z,4.35
2023-05-24T06:47:28.128Z,3.55
2023-05-24T06:50:31.677Z,3.35
2023-05-24T06:53:34.384Z,3.83
2023-05-24T06:56:37.099Z,3.20
2023-05-24T06:59:40.385Z,3.10
2023-05-24T07:02:43.628Z,2.90
2023-05-24T07:05:45.938Z,3.53
2023-05-24T07:08:49.381Z,2.95
2023-05-24T07:12:03.658Z,2.75
2023-05-24T07:15:09.090Z,2.97
2023-05-24T07:21:14.966Z,3.38
2023-05-24T07:24:17.355Z,2.80
2023-05-24T07:27:20.271Z,2.83
2023-05-24T07:30:31.738Z,2.97
2023-05-24T07:33:38.529Z,3.42
2023-05-24T07:36:42.477Z,2.88
2023-05-24T07:39:46.333Z,2.97
2023-05-24T07:42:49.117Z,2.60
2023-05-24T07:45:52.272Z,2.70
2023-05-24T07:48:54.493Z,2.90
2023-05-24T07:51:59.896Z,3.00
2023-05-24T07:55:02.456Z,2.83
2023-05-24T07:58:05.642Z,4.13
2023-05-24T08:01:09.075Z,2.58
2023-05-24T08:04:12.281Z,2.83
2023-05-24T08:07:14.723Z,3.00
2023-05-24T08:10:18.859Z,2.88
2023-05-24T08:13:21.213Z,3.13
2023-05-24T08:16:24.738Z,2.72
2023-05-24T08:19:28.347Z,2.70
2023-05-24T08:22:31.459Z,2.78
2023-05-24T08:25:33.898Z,2.83
2023-05-24T08:28:37.215Z,3.10
2023-05-24T08:31:39.774Z,2.42
2023-05-24T08:34:42.902Z,3.03
2023-05-24T08:37:46.246Z,2.63
2023-05-24T08:40:49.333Z,2.70
2023-05-24T08:43:52.527Z,3.53
2023-05-24T08:46:56.984Z,3.17
2023-05-24T08:50:00.197Z,2.92
2023-05-24T08:53:03.305Z,3.40
2023-05-24T08:56:09.500Z,2.90
2023-05-24T08:59:14.262Z,2.45
2023-05-24T09:02:17.465Z,2.63
2023-05-24T09:05:22.479Z,2.35
2023-05-24T09:08:25.322Z,2.28
2023-05-24T09:11:29.254Z,2.65
2023-05-24T09:14:33.697Z,3.10
2023-05-24T09:17:38.009Z,3.40
2023-05-24T09:20:41.049Z,2.83
2023-05-24T09:23:45.135Z,2.58
2023-05-24T09:26:51.734Z,3.20
2023-05-24T09:29:56.319Z,2.75
2023-05-24T09:33:01.844Z,3.92
2023-05-24T09:36:07.163Z,2.95
2023-05-24T09:39:10.849Z,2.78
2023-05-24T09:42:21.628Z,2.35
2023-05-24T09:45:25.052Z,2.58
2023-05-24T09:48:28.129Z,2.20
2023-05-24T09:51:30.664Z,2.28
2023-05-24T09:54:33.796Z,2.83
2023-05-24T09:57:36.894Z,3.10
2023-05-24T10:00:42.006Z,2.55
2023-05-24T10:04:04.807Z,3.13
2023-05-24T10:07:09.465Z,2.70
2023-05-24T10:10:12.533Z,2.63
2023-05-24T10:13:18.794Z,3.03
2023-05-24T10:16:21.076Z,3.53
2023-05-24T10:19:24.574Z,3.20
2023-05-24T10:22:28.397Z,2.80
2023-05-24T10:28:47.345Z,2.30
2023-05-24T10:31:55.767Z,2.53
2023-05-24T10:35:01.493Z,2.63
2023-05-24T10:38:10.158Z,2.55
2023-05-24T10:41:14.671Z,2.53
2023-05-24T10:44:21.652Z,2.35
2023-05-24T10:47:31.775Z,2.75
2023-05-24T10:50:39.882Z,2.53
2023-05-24T10:53:45.296Z,2.00
2023-05-24T10:56:54.790Z,2.33
2023-05-24T11:00:00.298Z,3.50
2023-05-24T11:03:10.879Z,2.78
2023-05-24T11:06:16.375Z,2.10
2023-05-24T11:09:23.228Z,2.22
2023-05-24T11:12:36.917Z,2.28
2023-05-24T11:15:52.911Z,2.45
2023-05-24T11:18:57.502Z,2.20
2023-05-24T11:22:06.543Z,2.35
2023-05-24T11:25:11.736Z,2.17
2023-05-24T11:28:16.801Z,2.45
2023-05-24T11:31:20.424Z,2.38
2023-05-24T11:34:26.556Z,2.28
2023-05-24T11:37:45.469Z,3.00
2023-05-24T11:40:52.257Z,2.30
2023-05-24T11:43:55.338Z,2.20
2023-05-24T11:47:01.216Z,2.47
2023-05-24T11:50:05.912Z,2.75
2023-05-24T11:53:13.716Z,2.20
2023-05-24T11:56:17.338Z,2.47
2023-05-24T11:59:26.287Z,2.45
2023-05-24T12:02:31.410Z,2.53
2023-05-24T12:05:38.108Z,1.67
2023-05-24T12:08:41.513Z,2.50
2023-05-24T12:11:49.413Z,3.20
2023-05-24T12:14:56.508Z,2.83
2023-05-24T12:18:01.143Z,2.17
2023-05-24T12:21:09.659Z,1.73
2023-05-24T12:24:15.859Z,1.90
2023-05-24T12:27:19.002Z,3.00
2023-05-24T12:30:29.202Z,3.10
2023-05-24T12:33:33.330Z,2.63
2023-05-24T12:36:38.628Z,2.53
2023-05-24T12:39:44.841Z,2.53
2023-05-24T12:42:57.896Z,2.95
2023-05-24T12:46:02.031Z,2.58
2023-05-24T12:49:06.374Z,3.10
2023-05-24T12:52:12.625Z,3.20
2023-05-24T12:55:17.184Z,2.70
2023-05-24T12:58:20.943Z,3.03
2023-05-24T13:01:26.802Z,2.30
2023-05-24T13:04:33.174Z,2.00
2023-05-24T13:07:39.514Z,2.35
2023-05-24T13:10:44.666Z,1.90
2023-05-24T13:13:50.279Z,2.15
2023-05-24T13:16:56.196Z,2.13
2023-05-24T13:20:07.662Z,2.63
2023-05-24T13:23:12.455Z,2.60
2023-05-24T13:26:17.952Z,1.70
2023-05-24T13:32:36.861Z,1.80
2023-05-24T13:35:47.881Z,1.65
2023-05-24T13:39:16.308Z,1.67
2023-05-24T13:42:35.481Z,1.70
2023-05-24T13:45:42.666Z,1.67
2023-05-24T13:48:49.177Z,2.00
2023-05-24T13:56:01.903Z,2.03
2023-05-24T13:59:11.939Z,1.58
2023-05-24T14:02:19.270Z,1.60
2023-05-24T14:05:28.577Z,1.75
2023-05-24T14:08:34.538Z,2.03
2023-05-24T14:11:42.917Z,1.75
2023-05-24T14:18:03.196Z,1.92
2023-05-24T14:21:10.153Z,1.38
2023-05-24T14:24:18.194Z,1.92
2023-05-24T14:27:26.612Z,1.92
2023-05-24T14:30:34.310Z,1.88
2023-05-24T14:33:41.158Z,1.50
2023-05-24T14:36:52.215Z,1.50
2023-05-24T14:39:59.743Z,1.60
2023-05-24T14:43:09.100Z,1.33
2023-05-24T14:46:16.376Z,1.55
2023-05-24T14:49:25.172Z,1.30
2023-05-24T14:52:33.932Z,1.50
2023-05-24T14:55:45.306Z,1.80
2023-05-24T14:58:53.229Z,1.50
2023-05-24T15:02:10.684Z,1.40
2023-05-24T15:05:16.953Z,1.23
2023-05-24T15:08:24.311Z,1.40
2023-05-24T15:11:31.354Z,1.35
2023-05-24T15:14:41.875Z,1.67
2023-05-24T15:17:48.837Z,2.53
2023-05-24T15:20:59.633Z,1.65
2023-05-24T15:24:09.424Z,1.58
2023-05-24T15:27:16.646Z,1.45
2023-05-24T15:30:25.139Z,1.65
2023-05-24T15:33:34.283Z,1.30
2023-05-24T15:36:44.841Z,1.25
2023-05-24T15:39:54.823Z,1.55
2023-05-24T15:43:01.857Z,1.27
2023-05-24T15:46:09.743Z,1.20
2023-05-24T15:49:23.831Z,1.13
2023-05-24T15:55:38.467Z,1.40
2023-05-24T15:58:44.855Z,1.50
2023-05-24T16:01:52.378Z,1.50
2023-05-24T16:05:02.592Z,1.30
2023-05-24T16:08:07.293Z,1.60
2023-05-24T16:11:27.099Z,1.35
2023-05-24T16:14:36.460Z,1.20
2023-05-24T16:17:41.425Z,1.20
2023-05-24T16:20:47.172Z,1.50
2023-05-24T16:23:54.272Z,1.55
2023-05-24T16:26:59.142Z,1.38
2023-05-24T16:30:03.235Z,1.60
2023-05-24T16:33:06.987Z,1.77
2023-05-24T16:36:13.613Z,2.22
2023-05-24T16:39:17.357Z,1.77
2023-05-24T16:42:22.517Z,1.80
2023-05-24T16:45:31.617Z,1.75
2023-05-24T16:48:51.515Z,2.28
2023-05-24T16:52:06.629Z,2.17
2023-05-24T16:55:16.041Z,2.13
2023-05-24T16:58:59.394Z,2.53
2023-05-24T17:02:06.938Z,2.50
2023-05-24T17:08:14.939Z,2.55
2023-05-24T17:11:20.298Z,1.73
2023-05-24T17:14:28.017Z,2.05
2023-05-24T17:17:57.694Z,2.00
2023-05-24T17:21:03.828Z,2.25
2023-05-24T17:24:07.946Z,2.05
2023-05-24T17:27:12.560Z,2.65
2023-05-24T17:30:16.381Z,2.60
2023-05-24T17:33:24.386Z,2.35
2023-05-24T17:36:28.182Z,1.90
2023-05-24T17:39:32.855Z,2.15
2023-05-24T17:42:38.075Z,2.28
2023-05-24T17:45:43.392Z,2.10
2023-05-24T17:48:48.566Z,2.42
2023-05-24T17:51:55.933Z,2.00
2023-05-24T17:55:00.782Z,2.15
2023-05-24T17:58:10.088Z,2.80
2023-05-24T18:01:14.682Z,2.70
2023-05-24T18:04:21.728Z,2.33
2023-05-24T18:07:29.734Z,2.10
2023-05-24T18:10:35.669Z,3.13
2023-05-24T18:13:43.490Z,2.70
2023-05-24T18:16:48.915Z,2.40
2023-05-24T18:19:54.327Z,2.42
2023-05-24T18:22:59.950Z,2.30
2023-05-24T18:26:14.170Z,2.67
2023-05-24T18:29:20.240Z,2.33
2023-05-24T18:32:24.742Z,2.63
2023-05-24T18:35:34.210Z,2.55
2023-05-24T18:38:41.433Z,2.42
2023-05-24T18:41:48.933Z,2.13
2023-05-24T18:44:55.827Z,2.33
2023-05-24T18:48:03.124Z,2.47
2023-05-24T18:51:10.240Z,2.10
2023-05-24T18:54:16.754Z,2.50
2023-05-24T18:57:22.552Z,2.50
2023-05-24T19:00:29.720Z,2.70
2023-05-24T19:04:01.128Z,2.28
2023-05-24T19:11:02.090Z,2.50
2023-05-24T19:14:40.841Z,2.88
2023-05-24T19:21:38.155Z,2.47
2023-05-24T19:24:49.394Z,3.03
2023-05-24T19:28:20.601Z,2.65
2023-05-24T19:32:36.968Z,3.15
2023-05-24T19:35:45.838Z,3.15
2023-05-24T19:38:56.941Z,2.45
2023-05-24T19:43:23.555Z,2.53
2023-05-24T19:51:07.266Z,2.70
2023-05-24T19:54:22.754Z,3.30
2023-05-24T19:57:28.475Z,3.10
2023-05-24T20:00:36.800Z,2.67
2023-05-24T20:03:46.480Z,2.83
2023-05-24T20:06:56.125Z,2.78
2023-05-24T20:10:03.373Z,2.67
2023-05-24T20:13:11.707Z,3.10
2023-05-24T20:16:19.034Z,3.00
2023-05-24T20:19:26.735Z,3.05
2023-05-24T20:22:33.551Z,3.50
2023-05-24T20:25:41.839Z,3.60
2023-05-24T20:28:51.285Z,3.00
2023-05-24T20:31:59.955Z,3.25
2023-05-24T20:35:06.793Z,3.17
2023-05-24T20:38:16.189Z,3.13
2023-05-24T20:41:21.496Z,3.28
2023-05-24T20:44:33.757Z,4.28
2023-05-24T20:47:46.000Z,3.10
2023-05-24T20:50:54.835Z,3.45
2023-05-24T20:57:09.415Z,2.63
2023-05-24T21:00:14.975Z,3.30
2023-05-24T21:03:21.399Z,3.30
2023-05-24T21:06:27.060Z,2.75
2023-05-24T21:09:31.730Z,3.95
2023-05-24T21:12:35.301Z,3.40
2023-05-24T21:19:02.080Z,3.25
2023-05-24T21:22:04.848Z,3.20
2023-05-24T21:25:07.701Z,3.08
2023-05-24T21:28:10.661Z,2.42
2023-05-24T21:31:12.935Z,1.80
2023-05-24T21:34:15.530Z,1.65
2023-05-24T21:37:17.858Z,2.05
2023-05-24T21:40:23.402Z,2.35
2023-05-24T21:47:10.572Z,1.88
2023-05-24T21:50:13.976Z,2.70
2023-05-24T21:53:17.192Z,2.42
2023-05-24T21:56:20.132Z,2.27
2023-05-24T21:59:22.285Z,2.65
2023-05-24T22:02:25.151Z,1.83
2023-05-24T22:05:28.197Z,2.05
2023-05-24T22:08:31.790Z,2.53
2023-05-24T22:11:35.813Z,2.95
2023-05-24T22:14:38.531Z,2.90
2023-05-24T22:17:43.802Z,2.83
2023-05-24T22:20:46.870Z,3.35
2023-05-24T22:23:51.650Z,3.53
2023-05-24T22:26:56.352Z,3.97
2023-05-24T22:29:58.868Z,3.88
2023-05-24T22:33:03.402Z,4.32
2023-05-24T22:36:06.727Z,4.10
2023-05-24T22:39:09.735Z,5.53
2023-05-24T22:42:12.814Z,4.50
2023-05-24T22:45:17.395Z,4.95
2023-05-24T22:48:22.435Z,4.13
2023-05-24T22:51:25.358Z,3.97
2023-05-24T22:54:27.674Z,4.50
2023-05-24T22:57:30.575Z,4.88
2023-05-24T23:00:32.736Z,4.47
2023-05-24T23:03:36.085Z,3.92
2023-05-24T23:06:39.854Z,3.63
2023-05-24T23:09:44.090Z,3.92
2023-05-24T23:12:47.513Z,4.05
2023-05-24T23:15:51.994Z,4.32
2023-05-24T23:18:55.032Z,5.55
2023-05-24T23:21:57.751Z,5.35
2023-05-24T23:25:00.154Z,5.63
2023-05-24T23:28:03.960Z,5.05
2023-05-24T23:31:06.686Z,4.60
2023-05-24T23:34:09.641Z,5.32
2023-05-24T23:37:12.292Z,4.68
2023-05-24T23:40:15.535Z,4.85
2023-05-24T23:43:18.717Z,4.72
2023-05-24T23:46:21.742Z,5.45
2023-05-24T23:49:25.341Z,5.65
2023-05-24T23:52:28.573Z,5.53
2023-05-24T23:55:31.815Z,4.22
2023-05-24T23:58:35.071Z,5.18
